Volk Field
KVOK : now visible

Airfield :











YOU CAN JOIN US ON...

 
LOGIN :

Register | Disclaimer

   EN    FR    IT 

 









Legend :    VFR   Marginal VFR   IFR   Intensive IFR   Very Intensive IFR
Visi :
Ceiling :
>= 8 km
>= 3000ft
5 to 8 km
1000 to 3000 ft
1500m to 5 km
500 to 1000 ft
800 to 1500m
200 to 500 ft
< 800m
< 200 ft
Symbols :   Thunderstorms  Fog  Heavy snow  Heavy precipitations  Wind > 20 kt







- Airport Elevation : 912 ft


KVOK - Volk Field

CURRENT METAR :
  • 170656Z AUTO 10004KT 10SM CLR 15/15 A3012 RMK AO2 SLP199 T01480148

EXPIRED METARs :
  • 170601Z AUTO 00000KT 4SM BR CLR 15/15 A3011 RMK AO2 SLP196
  • 170556Z AUTO 00000KT 1/2SM FG CLR 14/14 A3011 RMK AO2 SLP196 T01440144 10209 20138 402930138 52006 RVRNO $
  • 170536Z AUTO 10004KT 1/4SM FG CLR 14/14 A3011 RMK AO2 VIS 1/4V5 SLP197 RVRNO $
  • 170531Z AUTO 10003KT 5/8SM BR CLR 14/14 A3011 RMK AO2 VIS 5/8V10 SLP197 RVRNO $
  • 170511Z AUTO 11003KT 6SM BR CLR 14/14 A3011 RMK AO2 SLP197

TAF TAF KVOK
Valid from the 16 at 17:00 until the 17 at 23:00 UTC


161700Z 1617/1723 15006KT 9999 FEW250 QNH3008INS
BECMG 1623/1624 14006KT 9999 SKC QNH3009INS
BECMG 1705/1706 VRB06KT 8000 BR SKC QNH3007INS
BECMG 1708/1709 VRB06KT 0400 FG SKC QNH3005INS
BECMG 1709/1710 17006KT 3200 BR SCT005 QNH3004INS
BECMG 1714/1715 18006KT 9999 NSW SCT010 QNH3002INS
BECMG 1720/1721 16010G15KT 9999 FEW030 QNH3003INS TX26/1621Z TN16/1712Z LAST NO AMDS AFT 1621 NEXT 1709
No reported NOTAMs for that airfield.



MET'MAP, your aeronautical weather chart ! - Copyright ORBIFLY December 2007 - Disclaimer

ORBIFLY MET'MAP TEAM :

Programming & Development : Alexandra Zaïnal
Concept & Development : Baudouin d'Aumeries
Co-Development & Prog : Marc-Olivier Méhu
Technical & hardware support : Manuel Goepfert

Contact : metmap@orbifly.com




SOURCES & CREDITS :

   NOAA       Earth
Advisory